sensor_id;sensor_type;location;lat;lon;timestamp;temperature;humidity
75134;HTU21D;64441;44.708;37.780;2022-10-31T00:01:32;14.51;75.47
75134;HTU21D;64441;44.708;37.780;2022-10-31T00:03:58;14.52;75.86
75134;HTU21D;64441;44.708;37.780;2022-10-31T00:06:24;14.51;75.52
75134;HTU21D;64441;44.708;37.780;2022-10-31T00:08:57;14.51;75.69
75134;HTU21D;64441;44.708;37.780;2022-10-31T00:11:23;14.49;75.51
75134;HTU21D;64441;44.708;37.780;2022-10-31T00:13:49;14.49;75.73
75134;HTU21D;64441;44.708;37.780;2022-10-31T00:16:20;14.47;75.98
75134;HTU21D;64441;44.708;37.780;2022-10-31T00:18:50;14.43;75.73
75134;HTU21D;64441;44.708;37.780;2022-10-31T00:21:16;14.40;75.95
75134;HTU21D;64441;44.708;37.780;2022-10-31T00:23:42;14.40;76.02
75134;HTU21D;64441;44.708;37.780;2022-10-31T00:26:08;14.39;75.84
75134;HTU21D;64441;44.708;37.780;2022-10-31T00:28:33;14.39;75.82
75134;HTU21D;64441;44.708;37.780;2022-10-31T00:31:00;14.39;75.81
75134;HTU21D;64441;44.708;37.780;2022-10-31T00:33:26;14.40;75.76
75134;HTU21D;64441;44.708;37.780;2022-10-31T00:35:52;14.41;75.79
75134;HTU21D;64441;44.708;37.780;2022-10-31T00:38:18;14.41;76.08
75134;HTU21D;64441;44.708;37.780;2022-10-31T00:40:44;14.43;76.15
75134;HTU21D;64441;44.708;37.780;2022-10-31T00:43:10;14.43;76.39
75134;HTU21D;64441;44.708;37.780;2022-10-31T00:45:36;14.44;76.19
75134;HTU21D;64441;44.708;37.780;2022-10-31T00:48:02;14.45;76.05
75134;HTU21D;64441;44.708;37.780;2022-10-31T00:50:27;14.48;76.02
75134;HTU21D;64441;44.708;37.780;2022-10-31T00:52:53;14.48;75.97
75134;HTU21D;64441;44.708;37.780;2022-10-31T00:55:19;14.47;75.89
75134;HTU21D;64441;44.708;37.780;2022-10-31T00:57:46;14.49;75.95
75134;HTU21D;64441;44.708;37.780;2022-10-31T01:00:12;14.49;75.98
75134;HTU21D;64441;44.708;37.780;2022-10-31T01:02:39;14.48;76.18
75134;HTU21D;64441;44.708;37.780;2022-10-31T01:05:05;14.48;76.03
75134;HTU21D;64441;44.708;37.780;2022-10-31T01:07:31;14.49;76.09
75134;HTU21D;64441;44.708;37.780;2022-10-31T01:09:57;14.48;76.05
75134;HTU21D;64441;44.708;37.780;2022-10-31T01:12:25;14.50;76.01
75134;HTU21D;64441;44.708;37.780;2022-10-31T01:14:50;14.50;76.01
75134;HTU21D;64441;44.708;37.780;2022-10-31T01:17:17;14.51;76.05
75134;HTU21D;64441;44.708;37.780;2022-10-31T01:19:45;14.52;76.26
75134;HTU21D;64441;44.708;37.780;2022-10-31T01:22:11;14.54;77.76
75134;HTU21D;64441;44.708;37.780;2022-10-31T01:24:37;14.55;76.50
75134;HTU21D;64441;44.708;37.780;2022-10-31T01:27:03;14.58;76.68
75134;HTU21D;64441;44.708;37.780;2022-10-31T01:29:32;14.60;76.63
75134;HTU21D;64441;44.708;37.780;2022-10-31T01:31:58;14.63;76.63
75134;HTU21D;64441;44.708;37.780;2022-10-31T01:34:24;14.62;76.70
75134;HTU21D;64441;44.708;37.780;2022-10-31T01:36:50;14.62;76.92
75134;HTU21D;64441;44.708;37.780;2022-10-31T01:39:17;14.60;76.75
75134;HTU21D;64441;44.708;37.780;2022-10-31T01:41:44;14.62;76.66
75134;HTU21D;64441;44.708;37.780;2022-10-31T01:49:12;14.64;76.83
75134;HTU21D;64441;44.708;37.780;2022-10-31T01:51:41;14.64;77.00
75134;HTU21D;64441;44.708;37.780;2022-10-31T01:54:09;14.63;76.97
75134;HTU21D;64441;44.708;37.780;2022-10-31T01:56:38;14.65;76.98
75134;HTU21D;64441;44.708;37.780;2022-10-31T01:59:05;14.62;77.02
75134;HTU21D;64441;44.708;37.780;2022-10-31T02:01:32;14.63;77.15
75134;HTU21D;64441;44.708;37.780;2022-10-31T02:03:58;14.63;77.37
75134;HTU21D;64441;44.708;37.780;2022-10-31T02:06:33;14.62;77.04
75134;HTU21D;64441;44.708;37.780;2022-10-31T02:09:00;14.66;77.98
75134;HTU21D;64441;44.708;37.780;2022-10-31T02:11:27;14.63;77.88
75134;HTU21D;64441;44.708;37.780;2022-10-31T02:13:54;14.62;77.67
75134;HTU21D;64441;44.708;37.780;2022-10-31T02:16:21;14.60;77.53
75134;HTU21D;64441;44.708;37.780;2022-10-31T02:18:49;14.59;77.46
75134;HTU21D;64441;44.708;37.780;2022-10-31T02:21:19;14.58;77.76
75134;HTU21D;64441;44.708;37.780;2022-10-31T02:32:13;14.51;77.52
75134;HTU21D;64441;44.708;37.780;2022-10-31T02:34:21;14.49;77.88
75134;HTU21D;64441;44.708;37.780;2022-10-31T02:36:58;14.44;77.56
75134;HTU21D;64441;44.708;37.780;2022-10-31T02:45:06;14.47;77.44
75134;HTU21D;64441;44.708;37.780;2022-10-31T02:47:34;14.47;77.56
75134;HTU21D;64441;44.708;37.780;2022-10-31T02:52:34;14.47;77.34
75134;HTU21D;64441;44.708;37.780;2022-10-31T02:55:38;14.48;77.30
75134;HTU21D;64441;44.708;37.780;2022-10-31T03:00:33;14.50;77.10
75134;HTU21D;64441;44.708;37.780;2022-10-31T03:03:06;14.50;77.03
75134;HTU21D;64441;44.708;37.780;2022-10-31T03:08:16;14.47;77.16
75134;HTU21D;64441;44.708;37.780;2022-10-31T03:11:06;14.48;77.29
75134;HTU21D;64441;44.708;37.780;2022-10-31T03:18:53;14.43;78.48
75134;HTU21D;64441;44.708;37.780;2022-10-31T03:21:25;14.42;78.85
75134;HTU21D;64441;44.708;37.780;2022-10-31T03:23:53;14.38;78.58
75134;HTU21D;64441;44.708;37.780;2022-10-31T03:26:20;14.37;78.30
75134;HTU21D;64441;44.708;37.780;2022-10-31T03:29:06;14.35;78.18
75134;HTU21D;64441;44.708;37.780;2022-10-31T03:31:47;14.30;78.06
75134;HTU21D;64441;44.708;37.780;2022-10-31T03:34:15;14.27;77.98
75134;HTU21D;64441;44.708;37.780;2022-10-31T03:36:42;14.25;77.92
75134;HTU21D;64441;44.708;37.780;2022-10-31T03:39:10;14.24;77.82
75134;HTU21D;64441;44.708;37.780;2022-10-31T03:41:39;14.23;77.81
75134;HTU21D;64441;44.708;37.780;2022-10-31T03:44:08;14.21;77.79
75134;HTU21D;64441;44.708;37.780;2022-10-31T03:46:38;14.19;77.89
75134;HTU21D;64441;44.708;37.780;2022-10-31T03:49:04;14.18;77.85
75134;HTU21D;64441;44.708;37.780;2022-10-31T03:51:32;14.15;77.99
75134;HTU21D;64441;44.708;37.780;2022-10-31T03:54:08;14.14;77.95
75134;HTU21D;64441;44.708;37.780;2022-10-31T03:56:36;14.12;77.87
75134;HTU21D;64441;44.708;37.780;2022-10-31T04:01:36;14.09;77.85
75134;HTU21D;64441;44.708;37.780;2022-10-31T04:04:02;14.09;77.81
75134;HTU21D;64441;44.708;37.780;2022-10-31T04:06:29;14.12;77.88
75134;HTU21D;64441;44.708;37.780;2022-10-31T04:08:56;14.13;77.89
75134;HTU21D;64441;44.708;37.780;2022-10-31T04:11:24;14.14;77.81
75134;HTU21D;64441;44.708;37.780;2022-10-31T04:14:11;14.17;77.82
75134;HTU21D;64441;44.708;37.780;2022-10-31T04:16:42;14.14;77.80
75134;HTU21D;64441;44.708;37.780;2022-10-31T04:19:10;14.14;77.94
75134;HTU21D;64441;44.708;37.780;2022-10-31T04:21:36;14.14;78.04
75134;HTU21D;64441;44.708;37.780;2022-10-31T04:24:02;14.12;78.17
75134;HTU21D;64441;44.708;37.780;2022-10-31T04:26:29;14.10;78.08
75134;HTU21D;64441;44.708;37.780;2022-10-31T04:28:56;14.09;78.03
75134;HTU21D;64441;44.708;37.780;2022-10-31T04:31:25;14.07;77.94
75134;HTU21D;64441;44.708;37.780;2022-10-31T04:33:51;14.04;77.85
75134;HTU21D;64441;44.708;37.780;2022-10-31T04:36:17;14.00;77.81
75134;HTU21D;64441;44.708;37.780;2022-10-31T04:38:43;13.97;77.83
75134;HTU21D;64441;44.708;37.780;2022-10-31T04:41:23;13.95;77.86
75134;HTU21D;64441;44.708;37.780;2022-10-31T04:43:57;13.92;77.89
75134;HTU21D;64441;44.708;37.780;2022-10-31T04:46:23;13.92;77.85
75134;HTU21D;64441;44.708;37.780;2022-10-31T04:48:48;13.89;77.85
75134;HTU21D;64441;44.708;37.780;2022-10-31T04:51:15;13.88;77.84
75134;HTU21D;64441;44.708;37.780;2022-10-31T04:53:41;13.85;77.81
75134;HTU21D;64441;44.708;37.780;2022-10-31T04:56:26;13.84;77.81
75134;HTU21D;64441;44.708;37.780;2022-10-31T04:58:57;13.83;77.80
75134;HTU21D;64441;44.708;37.780;2022-10-31T05:01:24;13.83;77.77
75134;HTU21D;64441;44.708;37.780;2022-10-31T05:03:50;13.83;77.72
75134;HTU21D;64441;44.708;37.780;2022-10-31T05:06:16;13.82;77.70
75134;HTU21D;64441;44.708;37.780;2022-10-31T05:08:42;13.82;77.73
75134;HTU21D;64441;44.708;37.780;2022-10-31T05:11:10;13.89;77.95
75134;HTU21D;64441;44.708;37.780;2022-10-31T05:13:37;14.32;78.82
75134;HTU21D;64441;44.708;37.780;2022-10-31T05:16:12;15.00;77.43
75134;HTU21D;64441;44.708;37.780;2022-10-31T05:18:56;15.17;76.45
75134;HTU21D;64441;44.708;37.780;2022-10-31T05:21:40;15.09;76.15
75134;HTU21D;64441;44.708;37.780;2022-10-31T05:24:07;15.01;76.36
75134;HTU21D;64441;44.708;37.780;2022-10-31T05:26:37;14.96;76.54
75134;HTU21D;64441;44.708;37.780;2022-10-31T05:29:03;15.01;76.82
75134;HTU21D;64441;44.708;37.780;2022-10-31T05:31:29;15.07;76.66
75134;HTU21D;64441;44.708;37.780;2022-10-31T05:33:55;15.02;76.53
75134;HTU21D;64441;44.708;37.780;2022-10-31T05:36:39;14.97;76.54
75134;HTU21D;64441;44.708;37.780;2022-10-31T05:39:15;14.89;76.68
75134;HTU21D;64441;44.708;37.780;2022-10-31T05:41:45;14.86;76.78
75134;HTU21D;64441;44.708;37.780;2022-10-31T05:44:24;14.82;76.82
75134;HTU21D;64441;44.708;37.780;2022-10-31T05:47:12;14.80;76.95
75134;HTU21D;64441;44.708;37.780;2022-10-31T05:49:56;14.79;77.07
75134;HTU21D;64441;44.708;37.780;2022-10-31T05:52:34;14.81;77.15
75134;HTU21D;64441;44.708;37.780;2022-10-31T05:55:07;14.83;77.19
75134;HTU21D;64441;44.708;37.780;2022-10-31T05:57:33;14.86;77.25
75134;HTU21D;64441;44.708;37.780;2022-10-31T05:59:59;14.91;77.65
75134;HTU21D;64441;44.708;37.780;2022-10-31T06:02:26;14.96;77.38
75134;HTU21D;64441;44.708;37.780;2022-10-31T06:05:11;15.02;77.40
75134;HTU21D;64441;44.708;37.780;2022-10-31T06:07:37;15.09;77.53
75134;HTU21D;64441;44.708;37.780;2022-10-31T06:10:04;15.15;77.50
75134;HTU21D;64441;44.708;37.780;2022-10-31T06:12:30;15.23;77.46
75134;HTU21D;64441;44.708;37.780;2022-10-31T06:15:16;15.30;77.40
75134;HTU21D;64441;44.708;37.780;2022-10-31T06:17:42;15.37;77.30
75134;HTU21D;64441;44.708;37.780;2022-10-31T06:20:08;15.45;77.32
75134;HTU21D;64441;44.708;37.780;2022-10-31T06:22:41;15.53;77.35
75134;HTU21D;64441;44.708;37.780;2022-10-31T06:25:07;15.59;77.54
75134;HTU21D;64441;44.708;37.780;2022-10-31T06:27:36;15.65;77.42
75134;HTU21D;64441;44.708;37.780;2022-10-31T06:30:09;15.72;77.54
75134;HTU21D;64441;44.708;37.780;2022-10-31T06:32:36;15.76;77.53
75134;HTU21D;64441;44.708;37.780;2022-10-31T06:35:02;15.80;77.41
75134;HTU21D;64441;44.708;37.780;2022-10-31T06:37:28;15.82;77.45
75134;HTU21D;64441;44.708;37.780;2022-10-31T06:40:01;15.85;77.41
75134;HTU21D;64441;44.708;37.780;2022-10-31T06:42:30;15.87;77.33
75134;HTU21D;64441;44.708;37.780;2022-10-31T06:44:56;15.84;77.27
75134;HTU21D;64441;44.708;37.780;2022-10-31T06:47:55;15.82;77.23
75134;HTU21D;64441;44.708;37.780;2022-10-31T06:50:25;15.77;77.03
75134;HTU21D;64441;44.708;37.780;2022-10-31T06:52:52;15.75;77.18
75134;HTU21D;64441;44.708;37.780;2022-10-31T06:55:19;15.75;77.21
75134;HTU21D;64441;44.708;37.780;2022-10-31T06:58:04;15.75;77.19
75134;HTU21D;64441;44.708;37.780;2022-10-31T07:00:30;15.73;77.22
75134;HTU21D;64441;44.708;37.780;2022-10-31T07:03:07;15.70;77.19
75134;HTU21D;64441;44.708;37.780;2022-10-31T07:05:35;15.68;77.24
75134;HTU21D;64441;44.708;37.780;2022-10-31T07:08:03;15.65;77.32
75134;HTU21D;64441;44.708;37.780;2022-10-31T07:10:31;15.61;77.34
75134;HTU21D;64441;44.708;37.780;2022-10-31T07:13:01;15.59;77.38
75134;HTU21D;64441;44.708;37.780;2022-10-31T07:15:30;15.59;77.31
75134;HTU21D;64441;44.708;37.780;2022-10-31T07:18:05;15.57;77.33
75134;HTU21D;64441;44.708;37.780;2022-10-31T07:20:33;15.54;77.33
75134;HTU21D;64441;44.708;37.780;2022-10-31T07:22:59;15.55;77.25
75134;HTU21D;64441;44.708;37.780;2022-10-31T07:25:26;15.52;77.24
75134;HTU21D;64441;44.708;37.780;2022-10-31T07:28:04;15.54;77.15
75134;HTU21D;64441;44.708;37.780;2022-10-31T07:30:31;15.56;77.12
75134;HTU21D;64441;44.708;37.780;2022-10-31T07:32:57;15.58;76.99
75134;HTU21D;64441;44.708;37.780;2022-10-31T07:35:31;15.61;76.89
75134;HTU21D;64441;44.708;37.780;2022-10-31T07:38:06;15.61;76.67
75134;HTU21D;64441;44.708;37.780;2022-10-31T07:40:32;15.68;76.26
75134;HTU21D;64441;44.708;37.780;2022-10-31T07:42:57;15.71;76.05
75134;HTU21D;64441;44.708;37.780;2022-10-31T07:46:01;15.80;75.74
75134;HTU21D;64441;44.708;37.780;2022-10-31T07:48:45;15.87;74.78
75134;HTU21D;64441;44.708;37.780;2022-10-31T07:51:30;15.96;74.35
75134;HTU21D;64441;44.708;37.780;2022-10-31T07:54:19;15.99;73.77
75134;HTU21D;64441;44.708;37.780;2022-10-31T07:56:45;16.00;73.77
75134;HTU21D;64441;44.708;37.780;2022-10-31T07:59:12;16.00;73.42
75134;HTU21D;64441;44.708;37.780;2022-10-31T08:01:39;16.02;73.25
75134;HTU21D;64441;44.708;37.780;2022-10-31T08:04:25;16.06;73.15
75134;HTU21D;64441;44.708;37.780;2022-10-31T08:07:14;16.11;73.10
75134;HTU21D;64441;44.708;37.780;2022-10-31T08:09:44;16.13;72.90
75134;HTU21D;64441;44.708;37.780;2022-10-31T08:12:18;16.15;72.46
75134;HTU21D;64441;44.708;37.780;2022-10-31T08:14:45;16.17;72.75
75134;HTU21D;64441;44.708;37.780;2022-10-31T08:17:12;16.19;72.81
75134;HTU21D;64441;44.708;37.780;2022-10-31T08:19:45;16.21;72.54
75134;HTU21D;64441;44.708;37.780;2022-10-31T08:22:15;16.25;72.45
75134;HTU21D;64441;44.708;37.780;2022-10-31T08:24:40;16.28;71.77
75134;HTU21D;64441;44.708;37.780;2022-10-31T08:27:06;16.31;71.85
75134;HTU21D;64441;44.708;37.780;2022-10-31T08:29:32;16.34;70.72
75134;HTU21D;64441;44.708;37.780;2022-10-31T08:31:58;16.37;71.16
75134;HTU21D;64441;44.708;37.780;2022-10-31T08:34:42;16.40;70.94
75134;HTU21D;64441;44.708;37.780;2022-10-31T08:37:27;16.45;70.19
75134;HTU21D;64441;44.708;37.780;2022-10-31T08:39:54;16.49;70.00
75134;HTU21D;64441;44.708;37.780;2022-10-31T08:42:21;16.54;69.82
75134;HTU21D;64441;44.708;37.780;2022-10-31T08:44:47;16.60;69.11
75134;HTU21D;64441;44.708;37.780;2022-10-31T08:47:12;16.62;69.02
75134;HTU21D;64441;44.708;37.780;2022-10-31T08:49:38;16.66;67.84
75134;HTU21D;64441;44.708;37.780;2022-10-31T08:52:04;16.72;69.09
75134;HTU21D;64441;44.708;37.780;2022-10-31T08:54:35;16.77;68.75
75134;HTU21D;64441;44.708;37.780;2022-10-31T08:57:20;16.79;68.06
75134;HTU21D;64441;44.708;37.780;2022-10-31T08:59:47;16.78;67.30
75134;HTU21D;64441;44.708;37.780;2022-10-31T09:02:32;16.77;67.88
75134;HTU21D;64441;44.708;37.780;2022-10-31T09:04:59;16.74;68.10
75134;HTU21D;64441;44.708;37.780;2022-10-31T09:07:25;16.69;67.52
75134;HTU21D;64441;44.708;37.780;2022-10-31T09:09:52;16.62;67.87
75134;HTU21D;64441;44.708;37.780;2022-10-31T09:12:19;16.55;66.91
75134;HTU21D;64441;44.708;37.780;2022-10-31T09:14:54;16.49;67.01
75134;HTU21D;64441;44.708;37.780;2022-10-31T09:17:46;16.42;66.85
75134;HTU21D;64441;44.708;37.780;2022-10-31T09:20:34;16.35;67.57
75134;HTU21D;64441;44.708;37.780;2022-10-31T09:23:03;16.30;67.50
75134;HTU21D;64441;44.708;37.780;2022-10-31T09:25:32;16.25;67.79
75134;HTU21D;64441;44.708;37.780;2022-10-31T09:28:19;16.19;67.86
75134;HTU21D;64441;44.708;37.780;2022-10-31T09:30:49;16.18;67.68
75134;HTU21D;64441;44.708;37.780;2022-10-31T09:33:23;16.16;66.95
75134;HTU21D;64441;44.708;37.780;2022-10-31T09:36:09;16.17;67.30
75134;HTU21D;64441;44.708;37.780;2022-10-31T09:38:39;16.17;67.17
75134;HTU21D;64441;44.708;37.780;2022-10-31T09:41:07;16.21;67.26
75134;HTU21D;64441;44.708;37.780;2022-10-31T09:52:01;16.52;65.75
75134;HTU21D;64441;44.708;37.780;2022-10-31T09:56:56;16.91;64.65
75134;HTU21D;64441;44.708;37.780;2022-10-31T09:59:27;17.06;64.91
75134;HTU21D;64441;44.708;37.780;2022-10-31T10:02:00;17.19;65.18
75134;HTU21D;64441;44.708;37.780;2022-10-31T10:10:21;17.25;64.44
75134;HTU21D;64441;44.708;37.780;2022-10-31T10:16:21;17.20;64.64
75134;HTU21D;64441;44.708;37.780;2022-10-31T10:21:32;17.22;63.92
75134;HTU21D;64441;44.708;37.780;2022-10-31T10:24:17;17.21;63.11
75134;HTU21D;64441;44.708;37.780;2022-10-31T10:26:57;17.23;63.55
75134;HTU21D;64441;44.708;37.780;2022-10-31T10:31:53;17.25;63.68
75134;HTU21D;64441;44.708;37.780;2022-10-31T10:34:25;17.26;62.51
75134;HTU21D;64441;44.708;37.780;2022-10-31T10:37:03;17.28;63.00
75134;HTU21D;64441;44.708;37.780;2022-10-31T10:39:32;17.36;62.47
75134;HTU21D;64441;44.708;37.780;2022-10-31T10:42:00;17.41;61.98
75134;HTU21D;64441;44.708;37.780;2022-10-31T10:44:45;17.47;61.65
75134;HTU21D;64441;44.708;37.780;2022-10-31T10:47:36;17.52;62.21
75134;HTU21D;64441;44.708;37.780;2022-10-31T10:50:09;17.52;61.29
75134;HTU21D;64441;44.708;37.780;2022-10-31T10:52:56;17.56;61.79
75134;HTU21D;64441;44.708;37.780;2022-10-31T11:00:24;17.68;60.74
75134;HTU21D;64441;44.708;37.780;2022-10-31T11:02:50;17.70;60.38
75134;HTU21D;64441;44.708;37.780;2022-10-31T11:05:36;17.72;60.16
75134;HTU21D;64441;44.708;37.780;2022-10-31T11:08:03;17.74;60.64
75134;HTU21D;64441;44.708;37.780;2022-10-31T11:10:29;17.70;60.49
75134;HTU21D;64441;44.708;37.780;2022-10-31T11:13:06;17.64;60.44
75134;HTU21D;64441;44.708;37.780;2022-10-31T11:15:53;17.63;60.22
75134;HTU21D;64441;44.708;37.780;2022-10-31T11:18:20;17.66;60.38
75134;HTU21D;64441;44.708;37.780;2022-10-31T11:20:51;17.64;60.55
75134;HTU21D;64441;44.708;37.780;2022-10-31T11:23:18;17.63;60.57
75134;HTU21D;64441;44.708;37.780;2022-10-31T11:25:48;17.60;60.98
75134;HTU21D;64441;44.708;37.780;2022-10-31T11:28:16;17.59;60.91
75134;HTU21D;64441;44.708;37.780;2022-10-31T11:30:43;17.55;60.77
75134;HTU21D;64441;44.708;37.780;2022-10-31T11:33:21;17.54;60.77
75134;HTU21D;64441;44.708;37.780;2022-10-31T11:35:48;17.49;60.67
75134;HTU21D;64441;44.708;37.780;2022-10-31T11:38:15;17.44;60.93
75134;HTU21D;64441;44.708;37.780;2022-10-31T11:40:50;17.45;61.17
75134;HTU21D;64441;44.708;37.780;2022-10-31T11:43:17;17.48;61.21
75134;HTU21D;64441;44.708;37.780;2022-10-31T11:45:43;17.50;60.99
75134;HTU21D;64441;44.708;37.780;2022-10-31T11:48:16;17.52;60.91
75134;HTU21D;64441;44.708;37.780;2022-10-31T11:50:47;17.50;60.69
75134;HTU21D;64441;44.708;37.780;2022-10-31T11:53:32;17.49;60.74
75134;HTU21D;64441;44.708;37.780;2022-10-31T11:56:09;17.45;61.09
75134;HTU21D;64441;44.708;37.780;2022-10-31T11:58:35;17.43;61.06
75134;HTU21D;64441;44.708;37.780;2022-10-31T12:01:01;17.46;61.27
75134;HTU21D;64441;44.708;37.780;2022-10-31T12:08:30;17.75;61.25
75134;HTU21D;64441;44.708;37.780;2022-10-31T12:11:06;17.84;61.19
75134;HTU21D;64441;44.708;37.780;2022-10-31T12:13:48;17.91;61.07
75134;HTU21D;64441;44.708;37.780;2022-10-31T12:16:41;17.91;60.60
75134;HTU21D;64441;44.708;37.780;2022-10-31T12:19:16;17.85;60.88
75134;HTU21D;64441;44.708;37.780;2022-10-31T12:30:20;17.74;61.06
75134;HTU21D;64441;44.708;37.780;2022-10-31T12:33:05;17.67;61.12
75134;HTU21D;64441;44.708;37.780;2022-10-31T12:35:43;17.65;61.43
75134;HTU21D;64441;44.708;37.780;2022-10-31T12:46:06;17.52;61.26
75134;HTU21D;64441;44.708;37.780;2022-10-31T12:51:18;17.45;61.33
75134;HTU21D;64441;44.708;37.780;2022-10-31T12:56:37;17.33;61.49
75134;HTU21D;64441;44.708;37.780;2022-10-31T12:59:19;17.24;61.61
75134;HTU21D;64441;44.708;37.780;2022-10-31T13:06:49;17.02;61.47
75134;HTU21D;64441;44.708;37.780;2022-10-31T13:09:17;16.93;61.37
75134;HTU21D;64441;44.708;37.780;2022-10-31T13:11:48;16.88;61.49
75134;HTU21D;64441;44.708;37.780;2022-10-31T13:14:26;16.85;61.76
75134;HTU21D;64441;44.708;37.780;2022-10-31T13:16:53;16.81;61.83
75134;HTU21D;64441;44.708;37.780;2022-10-31T13:24:35;16.61;61.81
75134;HTU21D;64441;44.708;37.780;2022-10-31T13:27:03;16.54;61.70
75134;HTU21D;64441;44.708;37.780;2022-10-31T13:29:39;16.47;61.94
75134;HTU21D;64441;44.708;37.780;2022-10-31T13:32:08;16.49;62.28
75134;HTU21D;64441;44.708;37.780;2022-10-31T13:34:35;16.52;61.94
75134;HTU21D;64441;44.708;37.780;2022-10-31T13:37:12;16.55;62.12
75134;HTU21D;64441;44.708;37.780;2022-10-31T13:39:44;16.56;62.02
75134;HTU21D;64441;44.708;37.780;2022-10-31T13:44:44;16.45;61.87
75134;HTU21D;64441;44.708;37.780;2022-10-31T13:49:48;16.17;62.06
75134;HTU21D;64441;44.708;37.780;2022-10-31T13:52:15;16.07;62.15
75134;HTU21D;64441;44.708;37.780;2022-10-31T13:54:46;15.96;62.26
75134;HTU21D;64441;44.708;37.780;2022-10-31T13:57:19;15.86;62.42
75134;HTU21D;64441;44.708;37.780;2022-10-31T13:59:51;15.76;62.59
75134;HTU21D;64441;44.708;37.780;2022-10-31T14:02:24;15.71;62.61
75134;HTU21D;64441;44.708;37.780;2022-10-31T14:04:52;15.67;62.76
75134;HTU21D;64441;44.708;37.780;2022-10-31T14:07:21;15.59;62.55
75134;HTU21D;64441;44.708;37.780;2022-10-31T14:12:22;15.44;62.63
75134;HTU21D;64441;44.708;37.780;2022-10-31T14:14:50;15.33;62.72
75134;HTU21D;64441;44.708;37.780;2022-10-31T14:17:18;15.25;62.82
75134;HTU21D;64441;44.708;37.780;2022-10-31T14:19:56;15.16;62.92
75134;HTU21D;64441;44.708;37.780;2022-10-31T14:22:22;15.11;62.94
75134;HTU21D;64441;44.708;37.780;2022-10-31T14:24:48;15.03;63.05
75134;HTU21D;64441;44.708;37.780;2022-10-31T14:29:49;14.91;63.38
75134;HTU21D;64441;44.708;37.780;2022-10-31T14:32:19;14.84;63.53
75134;HTU21D;64441;44.708;37.780;2022-10-31T14:45:15;14.43;63.84
75134;HTU21D;64441;44.708;37.780;2022-10-31T14:53:01;14.11;64.00
75134;HTU21D;64441;44.708;37.780;2022-10-31T14:55:28;14.04;64.13
75134;HTU21D;64441;44.708;37.780;2022-10-31T14:57:54;13.96;64.17
75134;HTU21D;64441;44.708;37.780;2022-10-31T15:00:22;13.85;64.29
75134;HTU21D;64441;44.708;37.780;2022-10-31T15:02:53;13.78;64.33
75134;HTU21D;64441;44.708;37.780;2022-10-31T15:05:21;13.69;64.43
75134;HTU21D;64441;44.708;37.780;2022-10-31T15:07:48;13.60;64.50
75134;HTU21D;64441;44.708;37.780;2022-10-31T15:10:19;13.52;64.65
75134;HTU21D;64441;44.708;37.780;2022-10-31T15:12:46;13.45;64.66
75134;HTU21D;64441;44.708;37.780;2022-10-31T15:15:18;13.37;64.74
75134;HTU21D;64441;44.708;37.780;2022-10-31T15:17:46;13.31;64.76
75134;HTU21D;64441;44.708;37.780;2022-10-31T15:20:18;13.24;64.86
75134;HTU21D;64441;44.708;37.780;2022-10-31T15:22:44;13.17;64.92
75134;HTU21D;64441;44.708;37.780;2022-10-31T15:25:14;13.11;64.92
75134;HTU21D;64441;44.708;37.780;2022-10-31T15:27:42;13.05;64.96
75134;HTU21D;64441;44.708;37.780;2022-10-31T15:32:43;12.94;65.04
75134;HTU21D;64441;44.708;37.780;2022-10-31T15:35:09;12.90;65.17
75134;HTU21D;64441;44.708;37.780;2022-10-31T15:37:35;12.85;65.26
75134;HTU21D;64441;44.708;37.780;2022-10-31T15:40:14;12.81;65.30
75134;HTU21D;64441;44.708;37.780;2022-10-31T15:42:41;12.78;65.40
75134;HTU21D;64441;44.708;37.780;2022-10-31T15:47:36;12.71;65.57
75134;HTU21D;64441;44.708;37.780;2022-10-31T15:50:03;12.69;65.57
75134;HTU21D;64441;44.708;37.780;2022-10-31T15:52:35;12.63;65.65
75134;HTU21D;64441;44.708;37.780;2022-10-31T15:55:05;12.61;65.76
75134;HTU21D;64441;44.708;37.780;2022-10-31T15:57:32;12.57;66.01
75134;HTU21D;64441;44.708;37.780;2022-10-31T15:59:58;12.53;66.20
75134;HTU21D;64441;44.708;37.780;2022-10-31T16:02:25;12.51;66.44
75134;HTU21D;64441;44.708;37.780;2022-10-31T16:07:20;12.45;66.69
75134;HTU21D;64441;44.708;37.780;2022-10-31T16:09:50;12.42;66.75
75134;HTU21D;64441;44.708;37.780;2022-10-31T16:12:16;12.37;66.85
75134;HTU21D;64441;44.708;37.780;2022-10-31T16:14:42;12.35;66.95
75134;HTU21D;64441;44.708;37.780;2022-10-31T16:17:15;12.33;67.01
75134;HTU21D;64441;44.708;37.780;2022-10-31T16:19:56;12.33;67.24
75134;HTU21D;64441;44.708;37.780;2022-10-31T16:24:54;12.29;67.23
75134;HTU21D;64441;44.708;37.780;2022-10-31T16:27:25;12.26;67.19
75134;HTU21D;64441;44.708;37.780;2022-10-31T16:29:55;12.22;67.15
75134;HTU21D;64441;44.708;37.780;2022-10-31T16:32:25;12.19;67.16
75134;HTU21D;64441;44.708;37.780;2022-10-31T16:37:42;12.13;67.24
75134;HTU21D;64441;44.708;37.780;2022-10-31T16:40:12;12.10;67.38
75134;HTU21D;64441;44.708;37.780;2022-10-31T16:42:39;12.06;67.17
75134;HTU21D;64441;44.708;37.780;2022-10-31T16:45:05;12.03;67.14
75134;HTU21D;64441;44.708;37.780;2022-10-31T16:47:32;12.02;67.07
75134;HTU21D;64441;44.708;37.780;2022-10-31T16:49:58;12.02;67.17
75134;HTU21D;64441;44.708;37.780;2022-10-31T16:52:25;12.03;67.20
75134;HTU21D;64441;44.708;37.780;2022-10-31T16:54:51;12.04;67.20
75134;HTU21D;64441;44.708;37.780;2022-10-31T16:57:18;12.06;67.23
75134;HTU21D;64441;44.708;37.780;2022-10-31T16:59:46;12.11;67.33
75134;HTU21D;64441;44.708;37.780;2022-10-31T17:02:14;12.14;67.33
75134;HTU21D;64441;44.708;37.780;2022-10-31T17:04:40;12.16;67.42
75134;HTU21D;64441;44.708;37.780;2022-10-31T17:07:06;12.17;67.39
75134;HTU21D;64441;44.708;37.780;2022-10-31T17:09:32;12.18;67.38
75134;HTU21D;64441;44.708;37.780;2022-10-31T17:11:58;12.16;67.36
75134;HTU21D;64441;44.708;37.780;2022-10-31T17:14:24;12.14;67.33
75134;HTU21D;64441;44.708;37.780;2022-10-31T17:16:50;12.11;67.39
75134;HTU21D;64441;44.708;37.780;2022-10-31T17:19:16;12.10;67.35
75134;HTU21D;64441;44.708;37.780;2022-10-31T17:21:42;12.10;67.39
75134;HTU21D;64441;44.708;37.780;2022-10-31T17:24:12;12.11;67.37
75134;HTU21D;64441;44.708;37.780;2022-10-31T17:26:38;12.07;67.14
75134;HTU21D;64441;44.708;37.780;2022-10-31T17:29:04;12.05;66.59
75134;HTU21D;64441;44.708;37.780;2022-10-31T17:31:31;12.02;66.07
75134;HTU21D;64441;44.708;37.780;2022-10-31T17:33:57;11.98;66.15
75134;HTU21D;64441;44.708;37.780;2022-10-31T17:36:24;11.93;65.91
75134;HTU21D;64441;44.708;37.780;2022-10-31T17:38:50;11.87;65.66
75134;HTU21D;64441;44.708;37.780;2022-10-31T17:41:16;11.84;65.47
75134;HTU21D;64441;44.708;37.780;2022-10-31T17:43:42;11.77;65.73